Time;durP1;ratioP1;P1;durP2;ratioP2;P2;SDS_P1;SDS_P2;PMS_P1;PMS_P2;Temp;Humidity;BMP_temperature;BMP_pressure;BME280_temperature;BME280_humidity;BME280_pressure;Samples;Min_cycle;Max_cycle;Signal;HPM_P1;HPM_P2
2022/11/30 00:01:27;;;;;;;30.60;16.17;;;;;;;;;;4878747;29;20498;-65
2022/11/30 00:03:56;;;;;;;30.85;15.32;;;;;;;;;;4878956;29;20052;-65
2022/11/30 00:06:23;;;;;;;32.75;16.13;;;;;;;;;;4877154;29;20421;-65
2022/11/30 00:08:53;;;;;;;33.22;17.67;;;;;;;;;;4879073;29;20494;-64
2022/11/30 00:11:20;;;;;;;27.27;16.10;;;;;;;;;;4881233;29;20055;-64
2022/11/30 00:13:47;;;;;;;37.13;17.50;;;;;;;;;;4881564;29;20045;-64
2022/11/30 00:16:13;;;;;;;30.75;14.77;;;;;;;;;;4878977;29;20041;-64
2022/11/30 00:18:40;;;;;;;36.20;15.88;;;;;;;;;;4879049;29;20049;-64
2022/11/30 00:21:09;;;;;;;30.55;15.30;;;;;;;;;;4878936;29;20041;-64
2022/11/30 00:23:37;;;;;;;28.80;14.63;;;;;;;;;;4892980;29;20079;-64
2022/11/30 00:26:05;;;;;;;28.75;15.45;;;;;;;;;;4876725;29;20049;-64
2022/11/30 00:28:32;;;;;;;26.67;14.73;;;;;;;;;;4877492;29;20041;-64
2022/11/30 00:30:59;;;;;;;29.90;14.52;;;;;;;;;;4878666;29;20041;-64
2022/11/30 00:33:26;;;;;;;30.63;15.38;;;;;;;;;;4861658;29;20136;-65
2022/11/30 00:35:59;;;;;;;28.40;14.43;;;;;;;;;;4877974;29;20411;-64
2022/11/30 00:38:26;;;;;;;30.88;15.57;;;;;;;;;;4878239;29;20057;-65
2022/11/30 00:40:53;;;;;;;28.02;14.57;;;;;;;;;;4892342;29;20563;-64
2022/11/30 00:43:19;;;;;;;28.95;15.07;;;;;;;;;;4878173;29;20126;-64
2022/11/30 00:45:46;;;;;;;26.15;14.52;;;;;;;;;;4877790;29;20510;-64
2022/11/30 00:48:12;;;;;;;37.35;15.23;;;;;;;;;;4878433;29;20498;-65
2022/11/30 00:50:39;;;;;;;29.52;15.35;;;;;;;;;;4878134;29;20049;-64
2022/11/30 00:53:05;;;;;;;32.10;14.52;;;;;;;;;;4892103;29;20044;-64
2022/11/30 00:55:32;;;;;;;30.52;14.52;;;;;;;;;;4876086;29;20057;-64
2022/11/30 00:57:59;;;;;;;33.25;15.27;;;;;;;;;;4876996;29;20356;-64
2022/11/30 01:00:25;;;;;;;26.80;15.23;;;;;;;;;;4892223;29;20049;-64
2022/11/30 01:02:55;;;;;;;31.75;14.40;;;;;;;;;;4877926;29;20045;-64
2022/11/30 01:05:21;;;;;;;24.38;13.70;;;;;;;;;;4877097;29;20048;-64
2022/11/30 01:07:48;;;;;;;26.15;14.10;;;;;;;;;;4891999;29;20455;-64
2022/11/30 01:10:14;;;;;;;27.45;14.13;;;;;;;;;;4877614;29;20459;-65
2022/11/30 01:12:41;;;;;;;28.00;14.75;;;;;;;;;;4877633;29;20045;-64
2022/11/30 01:15:07;;;;;;;28.52;14.35;;;;;;;;;;4877530;29;20045;-64
2022/11/30 01:17:34;;;;;;;25.48;13.98;;;;;;;;;;4877144;29;20498;-64
2022/11/30 01:20:00;;;;;;;30.75;15.25;;;;;;;;;;4891858;29;20113;-64
2022/11/30 01:22:27;;;;;;;30.63;15.13;;;;;;;;;;4877475;29;20045;-64
2022/11/30 01:24:54;;;;;;;30.17;14.18;;;;;;;;;;4891964;29;20049;-64
2022/11/30 01:27:20;;;;;;;32.08;14.30;;;;;;;;;;4877336;29;20041;-64
2022/11/30 01:29:46;;;;;;;31.42;14.68;;;;;;;;;;4877550;29;20057;-64
2022/11/30 01:32:13;;;;;;;31.67;15.75;;;;;;;;;;4877539;29;20044;-64
2022/11/30 01:34:39;;;;;;;27.52;14.48;;;;;;;;;;4876391;29;20057;-65
2022/11/30 01:37:06;;;;;;;31.60;15.10;;;;;;;;;;4877020;29;20125;-64
2022/11/30 01:39:33;;;;;;;33.58;15.63;;;;;;;;;;4877652;29;20049;-64
2022/11/30 01:41:59;;;;;;;25.98;13.95;;;;;;;;;;4876212;29;20049;-64
2022/11/30 01:44:26;;;;;;;28.95;14.88;;;;;;;;;;4877681;29;20049;-64
2022/11/30 01:47:01;;;;;;;34.90;16.08;;;;;;;;;;4877168;29;20045;-65
2022/11/30 01:49:29;;;;;;;30.27;16.08;;;;;;;;;;4876497;29;20053;-64
2022/11/30 01:52:06;;;;;;;34.28;15.52;;;;;;;;;;4877429;29;20109;-65
2022/11/30 01:54:39;;;;;;;33.42;14.88;;;;;;;;;;4876460;29;20045;-63
2022/11/30 01:57:21;;;;;;;28.52;15.32;;;;;;;;;;4877421;29;20056;-64
2022/11/30 01:59:49;;;;;;;31.23;15.88;;;;;;;;;;4878907;29;20541;-65
2022/11/30 02:02:19;;;;;;;32.03;16.52;;;;;;;;;;4879022;29;20101;-65
2022/11/30 02:04:45;;;;;;;32.20;15.43;;;;;;;;;;4880128;29;20053;-64
2022/11/30 02:07:12;;;;;;;27.30;14.45;;;;;;;;;;4879069;29;20056;-64
2022/11/30 02:09:41;;;;;;;31.05;16.05;;;;;;;;;;4878671;29;20047;-65
2022/11/30 02:12:10;;;;;;;32.20;15.73;;;;;;;;;;4878273;29;20052;-64
2022/11/30 02:14:41;;;;;;;34.58;15.48;;;;;;;;;;4878265;29;20392;-65
2022/11/30 02:17:24;;;;;;;32.10;17.00;;;;;;;;;;4877796;29;20135;-65
2022/11/30 02:20:11;;;;;;;35.97;17.17;;;;;;;;;;4891965;29;20045;-65
2022/11/30 02:22:56;;;;;;;35.58;17.25;;;;;;;;;;4883186;29;20455;-65
2022/11/30 02:25:28;;;;;;;32.22;15.00;;;;;;;;;;4881995;29;20049;-65
2022/11/30 02:27:54;;;;;;;31.70;15.98;;;;;;;;;;4883207;29;20045;-65
2022/11/30 02:30:21;;;;;;;27.77;15.30;;;;;;;;;;4881688;29;20482;-64
2022/11/30 02:32:59;;;;;;;29.77;15.35;;;;;;;;;;4882087;29;20045;-65
2022/11/30 02:35:27;;;;;;;34.90;15.68;;;;;;;;;;4881371;29;20056;-65
2022/11/30 02:37:55;;;;;;;35.30;15.85;;;;;;;;;;4896275;29;20136;-65
2022/11/30 02:40:22;;;;;;;31.83;16.17;;;;;;;;;;4881767;29;20041;-64
2022/11/30 02:42:49;;;;;;;30.00;15.63;;;;;;;;;;4881099;29;20049;-65
2022/11/30 02:45:19;;;;;;;31.80;14.75;;;;;;;;;;4880000;29;20045;-65
2022/11/30 02:47:50;;;;;;;27.42;13.48;;;;;;;;;;4881119;29;20041;-64
2022/11/30 02:50:22;;;;;;;33.40;14.68;;;;;;;;;;4881534;29;20045;-65
2022/11/30 02:52:50;;;;;;;29.38;15.50;;;;;;;;;;4882078;29;20041;-64
2022/11/30 02:55:17;;;;;;;29.85;14.82;;;;;;;;;;4882678;29;20056;-65
2022/11/30 02:57:43;;;;;;;34.28;15.80;;;;;;;;;;4897002;29;20048;-64
2022/11/30 03:00:11;;;;;;;33.58;15.85;;;;;;;;;;4880619;29;20053;-65
2022/11/30 03:02:37;;;;;;;33.60;15.88;;;;;;;;;;4879481;29;20140;-65
2022/11/30 03:05:04;;;;;;;31.10;15.55;;;;;;;;;;4879537;29;20041;-65
2022/11/30 03:07:30;;;;;;;31.75;14.18;;;;;;;;;;4880483;29;20188;-65
2022/11/30 03:09:57;;;;;;;32.10;16.13;;;;;;;;;;4880373;29;20056;-64
2022/11/30 03:12:23;;;;;;;30.23;14.00;;;;;;;;;;4879719;29;20045;-65
2022/11/30 03:14:50;;;;;;;29.30;15.27;;;;;;;;;;4879690;29;20045;-65
2022/11/30 03:17:17;;;;;;;31.85;15.30;;;;;;;;;;4879186;29;20057;-65
2022/11/30 03:19:43;;;;;;;30.65;15.13;;;;;;;;;;4878306;29;20045;-65
2022/11/30 03:22:09;;;;;;;34.55;15.05;;;;;;;;;;4879410;29;20109;-65
2022/11/30 03:24:36;;;;;;;27.45;14.48;;;;;;;;;;4879460;29;20089;-65
2022/11/30 03:27:02;;;;;;;32.83;14.85;;;;;;;;;;4877516;29;20081;-65
2022/11/30 03:29:29;;;;;;;31.10;15.02;;;;;;;;;;4893624;29;20053;-65
2022/11/30 03:31:55;;;;;;;29.27;15.80;;;;;;;;;;4879206;29;20068;-65
2022/11/30 03:34:25;;;;;;;34.10;15.57;;;;;;;;;;4877326;29;20094;-65
2022/11/30 03:36:51;;;;;;;33.90;15.15;;;;;;;;;;4878718;29;20046;-65
2022/11/30 03:39:18;;;;;;;32.25;16.17;;;;;;;;;;4879190;29;20056;-65
2022/11/30 03:41:44;;;;;;;35.47;16.80;;;;;;;;;;4878848;29;20052;-64
2022/11/30 03:44:10;;;;;;;30.38;15.90;;;;;;;;;;4879120;29;20454;-65
2022/11/30 03:46:37;;;;;;;33.20;16.23;;;;;;;;;;4878391;29;20057;-65
2022/11/30 03:49:04;;;;;;;31.35;16.48;;;;;;;;;;4893330;29;20052;-65
2022/11/30 03:51:31;;;;;;;30.63;15.55;;;;;;;;;;4879005;29;20041;-66
2022/11/30 03:53:57;;;;;;;35.95;16.20;;;;;;;;;;4879004;29;20104;-66
2022/11/30 03:56:23;;;;;;;28.75;14.40;;;;;;;;;;4878237;29;20049;-66
2022/11/30 03:58:50;;;;;;;32.20;15.45;;;;;;;;;;4893133;29;20068;-64
2022/11/30 04:01:20;;;;;;;30.60;15.15;;;;;;;;;;4878946;29;20045;-65
2022/11/30 04:03:47;;;;;;;36.38;16.80;;;;;;;;;;4878189;29;20057;-65
2022/11/30 04:06:14;;;;;;;29.88;15.48;;;;;;;;;;4878895;29;20094;-65
2022/11/30 04:08:40;;;;;;;30.42;15.27;;;;;;;;;;4879378;29;20049;-65
2022/11/30 04:11:07;;;;;;;29.42;15.05;;;;;;;;;;4879213;29;20451;-65
2022/11/30 04:13:34;;;;;;;33.45;16.70;;;;;;;;;;4879178;29;20044;-65
2022/11/30 04:16:01;;;;;;;28.13;14.32;;;;;;;;;;4878842;29;20515;-64
2022/11/30 04:18:28;;;;;;;32.05;15.98;;;;;;;;;;4877893;29;20084;-65
2022/11/30 04:20:55;;;;;;;28.45;15.13;;;;;;;;;;4879260;29;20060;-65
2022/11/30 04:23:22;;;;;;;29.45;14.75;;;;;;;;;;4878936;29;20109;-65
2022/11/30 04:25:49;;;;;;;31.88;15.93;;;;;;;;;;4878414;29;20049;-65
2022/11/30 04:28:15;;;;;;;34.28;16.65;;;;;;;;;;4879140;29;20053;-65
2022/11/30 04:30:42;;;;;;;33.65;15.98;;;;;;;;;;4878966;29;20101;-65
2022/11/30 04:33:08;;;;;;;34.13;15.98;;;;;;;;;;4878724;29;20149;-65
2022/11/30 04:35:39;;;;;;;29.08;14.90;;;;;;;;;;4878538;29;20052;-65
2022/11/30 04:38:06;;;;;;;34.70;16.10;;;;;;;;;;4878826;29;20053;-64
2022/11/30 04:40:32;;;;;;;33.50;16.08;;;;;;;;;;4878767;29;20045;-65
2022/11/30 04:42:59;;;;;;;31.85;16.55;;;;;;;;;;4893040;29;20109;-65
2022/11/30 04:45:25;;;;;;;30.45;15.95;;;;;;;;;;4877940;29;20049;-65
2022/11/30 04:47:57;;;;;;;30.10;15.52;;;;;;;;;;4877497;29;20076;-64
2022/11/30 04:50:24;;;;;;;32.17;17.02;;;;;;;;;;4878616;29;20079;-65
2022/11/30 04:52:50;;;;;;;30.40;16.08;;;;;;;;;;4878463;29;20045;-65
2022/11/30 04:55:18;;;;;;;31.10;15.85;;;;;;;;;;4877986;29;20045;-65
2022/11/30 04:57:45;;;;;;;31.77;15.82;;;;;;;;;;4878491;29;20075;-65
2022/11/30 05:03:01;;;;;;;27.88;15.00;;;;;;;;;;5086255;23;20057;-65
2022/11/30 05:05:28;;;;;;;29.23;15.48;;;;;;;;;;4859504;29;20081;-65
2022/11/30 05:07:56;;;;;;;28.88;15.52;;;;;;;;;;4860173;29;20423;-64
2022/11/30 05:10:22;;;;;;;40.30;20.63;;;;;;;;;;4860433;29;20056;-65
2022/11/30 05:12:49;;;;;;;38.90;21.73;;;;;;;;;;4860938;29;20070;-65
2022/11/30 05:15:15;;;;;;;35.55;18.83;;;;;;;;;;4862855;29;20053;-65
2022/11/30 05:17:42;;;;;;;33.88;18.08;;;;;;;;;;4862401;29;20053;-65
2022/11/30 05:20:08;;;;;;;36.45;18.27;;;;;;;;;;4860049;29;20110;-65
2022/11/30 05:22:35;;;;;;;38.65;19.02;;;;;;;;;;4860257;29;20109;-64
2022/11/30 05:25:01;;;;;;;40.53;18.73;;;;;;;;;;4859967;29;20061;-64
2022/11/30 05:27:28;;;;;;;33.42;17.17;;;;;;;;;;4860158;29;20046;-65
2022/11/30 05:29:54;;;;;;;30.70;16.95;;;;;;;;;;4860169;29;20042;-65
2022/11/30 05:32:21;;;;;;;32.50;17.02;;;;;;;;;;4860112;29;20046;-65
2022/11/30 05:34:47;;;;;;;34.58;17.92;;;;;;;;;;4860034;29;20046;-65
2022/11/30 05:37:17;;;;;;;33.58;16.98;;;;;;;;;;4858159;29;20064;-65
2022/11/30 05:39:44;;;;;;;37.13;19.25;;;;;;;;;;4860308;29;20049;-65
2022/11/30 05:42:10;;;;;;;38.22;17.58;;;;;;;;;;4861132;29;20053;-65
2022/11/30 05:44:36;;;;;;;34.75;17.80;;;;;;;;;;4861870;29;20060;-65
2022/11/30 05:47:03;;;;;;;35.30;16.75;;;;;;;;;;4862233;29;20279;-65
2022/11/30 05:49:29;;;;;;;35.15;17.98;;;;;;;;;;4864187;29;20060;-65
2022/11/30 05:51:56;;;;;;;38.15;18.05;;;;;;;;;;4864270;29;20050;-64
2022/11/30 05:54:22;;;;;;;36.50;18.92;;;;;;;;;;4865658;29;20053;-64
2022/11/30 05:56:48;;;;;;;32.20;17.08;;;;;;;;;;4862499;29;20058;-64
2022/11/30 05:59:20;;;;;;;34.53;17.38;;;;;;;;;;4864780;29;20067;-64
2022/11/30 06:01:46;;;;;;;32.00;16.27;;;;;;;;;;4866364;29;20153;-64
2022/11/30 06:04:13;;;;;;;34.35;16.95;;;;;;;;;;4865957;29;20092;-64
2022/11/30 06:06:40;;;;;;;36.92;19.35;;;;;;;;;;4862832;29;20053;-64
2022/11/30 06:09:06;;;;;;;33.90;17.08;;;;;;;;;;4863275;29;20045;-64
2022/11/30 06:11:32;;;;;;;35.95;16.38;;;;;;;;;;4863023;29;20057;-64
2022/11/30 06:13:59;;;;;;;34.45;16.48;;;;;;;;;;4863062;29;20045;-64
2022/11/30 06:16:25;;;;;;;41.63;17.45;;;;;;;;;;4862371;29;20045;-65
2022/11/30 06:18:52;;;;;;;37.15;17.75;;;;;;;;;;4862483;29;20045;-65
2022/11/30 06:21:18;;;;;;;36.67;18.00;;;;;;;;;;4861504;29;20481;-65
2022/11/30 06:23:50;;;;;;;37.85;18.13;;;;;;;;;;4861802;29;20046;-64
2022/11/30 06:26:16;;;;;;;39.15;17.85;;;;;;;;;;4862297;29;20104;-64
2022/11/30 06:28:42;;;;;;;36.85;17.48;;;;;;;;;;4862724;29;20057;-64
2022/11/30 06:31:13;;;;;;;36.97;17.88;;;;;;;;;;4861472;29;20049;-65
2022/11/30 06:33:40;;;;;;;37.95;16.70;;;;;;;;;;4862450;29;20073;-65
2022/11/30 06:36:06;;;;;;;37.13;17.77;;;;;;;;;;4862032;29;20603;-65
2022/11/30 06:38:33;;;;;;;36.63;17.85;;;;;;;;;;4862415;29;20459;-65
2022/11/30 06:41:04;;;;;;;36.33;17.70;;;;;;;;;;4862275;29;20053;-65
2022/11/30 06:43:37;;;;;;;35.20;17.65;;;;;;;;;;4862244;29;20514;-65
2022/11/30 06:46:05;;;;;;;38.20;18.60;;;;;;;;;;4861671;29;20056;-65
2022/11/30 06:48:32;;;;;;;33.75;16.85;;;;;;;;;;4862356;29;20049;-65
2022/11/30 06:50:59;;;;;;;33.33;16.63;;;;;;;;;;4861098;29;20105;-65
2022/11/30 06:53:26;;;;;;;36.55;18.02;;;;;;;;;;4862512;29;20439;-65
2022/11/30 06:55:52;;;;;;;38.15;18.00;;;;;;;;;;4861657;29;20106;-65
2022/11/30 06:58:19;;;;;;;33.03;16.23;;;;;;;;;;4862092;29;20049;-66
2022/11/30 07:00:45;;;;;;;33.72;17.52;;;;;;;;;;4861968;29;20102;-66
2022/11/30 07:03:12;;;;;;;39.00;18.40;;;;;;;;;;4862053;29;20439;-65
2022/11/30 07:05:40;;;;;;;33.78;17.67;;;;;;;;;;4861384;29;20037;-65
2022/11/30 07:08:07;;;;;;;34.85;17.63;;;;;;;;;;4861676;29;20097;-65
2022/11/30 07:10:37;;;;;;;35.58;18.20;;;;;;;;;;4861754;29;20105;-65
2022/11/30 07:13:03;;;;;;;31.73;18.05;;;;;;;;;;4861729;29;20034;-66
2022/11/30 07:15:30;;;;;;;42.08;19.50;;;;;;;;;;4861049;29;20118;-65
2022/11/30 07:17:59;;;;;;;34.60;19.38;;;;;;;;;;4861456;29;20049;-65
2022/11/30 07:20:25;;;;;;;39.10;19.88;;;;;;;;;;4860350;29;20054;-65
2022/11/30 07:22:54;;;;;;;40.28;20.35;;;;;;;;;;4861343;29;20045;-65
2022/11/30 07:28:07;;;;;;;37.45;18.15;;;;;;;;;;4861461;29;20486;-65
2022/11/30 07:30:34;;;;;;;36.83;18.08;;;;;;;;;;4861413;29;20094;-65
2022/11/30 07:33:00;;;;;;;35.58;18.08;;;;;;;;;;4861351;29;20045;-66
2022/11/30 07:35:26;;;;;;;34.53;17.77;;;;;;;;;;4860766;29;20050;-66
2022/11/30 07:37:53;;;;;;;34.25;18.02;;;;;;;;;;4859986;29;20053;-65
2022/11/30 07:40:19;;;;;;;37.00;18.52;;;;;;;;;;4861307;29;20426;-65
2022/11/30 07:42:45;;;;;;;38.13;17.05;;;;;;;;;;4861418;29;20045;-68
2022/11/30 07:45:12;;;;;;;37.72;18.27;;;;;;;;;;4861054;29;20046;-65
2022/11/30 07:47:38;;;;;;;34.25;16.70;;;;;;;;;;4861041;29;20082;-66
2022/11/30 07:50:05;;;;;;;32.03;16.58;;;;;;;;;;4859855;29;20050;-65
2022/11/30 07:52:31;;;;;;;36.55;18.67;;;;;;;;;;4861036;29;20041;-66
2022/11/30 07:54:58;;;;;;;33.90;18.38;;;;;;;;;;4859728;29;20053;-65
2022/11/30 07:57:24;;;;;;;37.83;17.98;;;;;;;;;;4864163;29;20078;-65
2022/11/30 07:59:51;;;;;;;35.30;17.48;;;;;;;;;;4871460;29;20463;-66
2022/11/30 08:02:17;;;;;;;41.35;17.77;;;;;;;;;;4863800;29;20053;-66
2022/11/30 08:04:44;;;;;;;36.65;18.92;;;;;;;;;;4860166;29;20049;-65
2022/11/30 08:07:13;;;;;;;33.10;18.10;;;;;;;;;;4844313;29;20140;-65
2022/11/30 08:09:39;;;;;;;35.83;17.30;;;;;;;;;;4859699;29;20041;-65
2022/11/30 08:12:06;;;;;;;34.67;18.75;;;;;;;;;;4860636;29;20054;-65
2022/11/30 08:14:32;;;;;;;41.58;18.23;;;;;;;;;;4844218;29;20189;-63
2022/11/30 08:17:19;;;;;;;34.50;16.40;;;;;;;;;;4860093;29;20053;-63
2022/11/30 08:19:45;;;;;;;35.53;17.98;;;;;;;;;;4860412;29;20072;-65
2022/11/30 08:22:12;;;;;;;37.95;18.23;;;;;;;;;;4845545;29;20113;-64
2022/11/30 08:24:38;;;;;;;34.88;18.17;;;;;;;;;;4860878;29;20097;-64
2022/11/30 08:27:04;;;;;;;32.63;17.98;;;;;;;;;;4860041;29;20049;-64
2022/11/30 08:29:31;;;;;;;37.38;19.08;;;;;;;;;;4859985;29;20050;-64
2022/11/30 08:31:57;;;;;;;34.85;18.25;;;;;;;;;;4859193;29;20057;-64
2022/11/30 08:34:25;;;;;;;31.65;17.42;;;;;;;;;;4860394;29;20049;-67
2022/11/30 08:36:51;;;;;;;30.92;16.48;;;;;;;;;;4859973;29;20045;-66
2022/11/30 08:39:18;;;;;;;32.47;17.40;;;;;;;;;;4860518;29;20049;-66
2022/11/30 08:41:44;;;;;;;30.95;16.25;;;;;;;;;;4860619;29;20045;-66
2022/11/30 08:44:11;;;;;;;32.38;15.35;;;;;;;;;;4860338;29;20045;-65
2022/11/30 08:46:37;;;;;;;26.33;15.60;;;;;;;;;;4860316;29;20045;-65
2022/11/30 08:49:20;;;;;;;28.15;15.77;;;;;;;;;;4860697;29;20106;-64
2022/11/30 08:51:50;;;;;;;25.15;13.55;;;;;;;;;;4860062;29;20037;-65
2022/11/30 08:54:38;;;;;;;20.13;11.70;;;;;;;;;;4860004;29;20491;-65
2022/11/30 08:57:04;;;;;;;23.40;11.65;;;;;;;;;;4859578;29;20068;-65
2022/11/30 08:59:31;;;;;;;21.33;11.52;;;;;;;;;;4858744;29;20042;-66
2022/11/30 09:01:57;;;;;;;20.60;11.95;;;;;;;;;;4859771;29;20040;-66
2022/11/30 09:04:23;;;;;;;20.95;12.45;;;;;;;;;;4860139;29;20042;-66
2022/11/30 09:06:50;;;;;;;22.48;11.98;;;;;;;;;;4859693;29;20056;-66
2022/11/30 09:09:16;;;;;;;18.30;10.50;;;;;;;;;;4860719;29;20041;-64
2022/11/30 09:11:43;;;;;;;19.85;10.77;;;;;;;;;;4859988;29;20069;-65
2022/11/30 09:14:09;;;;;;;20.65;11.35;;;;;;;;;;4860007;29;20053;-64
2022/11/30 09:16:36;;;;;;;19.70;11.18;;;;;;;;;;4859399;29;20069;-64
2022/11/30 09:19:02;;;;;;;20.23;11.07;;;;;;;;;;4883591;23;20052;-60
2022/11/30 09:21:29;;;;;;;18.83;11.32;;;;;;;;;;4878384;29;20051;-58
2022/11/30 09:23:55;;;;;;;15.68;10.02;;;;;;;;;;4878380;29;20516;-60
2022/11/30 09:26:24;;;;;;;20.00;11.13;;;;;;;;;;4877816;29;20152;-59
2022/11/30 09:28:51;;;;;;;18.23;10.13;;;;;;;;;;4878538;29;20044;-59
2022/11/30 09:31:19;;;;;;;18.83;9.90;;;;;;;;;;4879313;29;20052;-61
2022/11/30 09:33:45;;;;;;;19.75;10.50;;;;;;;;;;4881005;29;20486;-60
2022/11/30 09:36:13;;;;;;;19.17;10.50;;;;;;;;;;4881574;29;20040;-60
2022/11/30 09:38:41;;;;;;;19.13;11.38;;;;;;;;;;4881979;29;20041;-60
2022/11/30 09:41:16;;;;;;;16.70;10.55;;;;;;;;;;4881995;29;20056;-58
2022/11/30 09:43:49;;;;;;;18.83;10.85;;;;;;;;;;4882730;29;20049;-60
2022/11/30 09:46:16;;;;;;;16.93;10.73;;;;;;;;;;4881974;29;20085;-60
2022/11/30 09:48:49;;;;;;;18.23;11.23;;;;;;;;;;4882249;29;20506;-61
2022/11/30 09:51:25;;;;;;;16.58;10.38;;;;;;;;;;4882190;29;20486;-60
2022/11/30 09:53:55;;;;;;;15.68;10.40;;;;;;;;;;4882086;29;20409;-60
2022/11/30 09:56:33;;;;;;;20.13;11.68;;;;;;;;;;4881255;29;20470;-60
2022/11/30 09:59:12;;;;;;;16.88;10.32;;;;;;;;;;4881885;29;20048;-60
2022/11/30 10:01:39;;;;;;;19.02;11.70;;;;;;;;;;4881877;29;20060;-63
2022/11/30 10:04:18;;;;;;;17.05;10.02;;;;;;;;;;4881751;29;20077;-61
2022/11/30 10:06:50;;;;;;;22.08;11.75;;;;;;;;;;4881076;29;20049;-60
2022/11/30 10:09:24;;;;;;;19.33;12.32;;;;;;;;;;4881798;29;20558;-61
2022/11/30 10:11:54;;;;;;;21.27;11.27;;;;;;;;;;4880380;29;20049;-60
2022/11/30 10:14:23;;;;;;;21.08;11.98;;;;;;;;;;4881606;29;20037;-60
2022/11/30 10:16:56;;;;;;;18.08;11.65;;;;;;;;;;4880990;29;20045;-60
2022/11/30 10:19:40;;;;;;;17.10;11.65;;;;;;;;;;4881179;29;20422;-60
2022/11/30 10:22:17;;;;;;;18.42;11.48;;;;;;;;;;4881483;29;20053;-62
2022/11/30 10:24:50;;;;;;;16.90;10.27;;;;;;;;;;4881443;29;20052;-61
2022/11/30 10:27:19;;;;;;;17.73;11.32;;;;;;;;;;4880991;29;20458;-61
2022/11/30 10:29:45;;;;;;;17.98;11.10;;;;;;;;;;4880414;29;20494;-61
2022/11/30 10:32:16;;;;;;;16.30;10.38;;;;;;;;;;4864956;29;20436;-61
2022/11/30 10:34:44;;;;;;;19.02;9.18;;;;;;;;;;4881549;29;20037;-61
2022/11/30 10:37:13;;;;;;;14.13;9.15;;;;;;;;;;4879994;29;20044;-61
2022/11/30 10:39:59;;;;;;;13.02;9.00;;;;;;;;;;4881097;29;20098;-60
2022/11/30 10:42:37;;;;;;;14.80;9.32;;;;;;;;;;4880570;29;20053;-61
2022/11/30 10:45:10;;;;;;;15.43;8.77;;;;;;;;;;4879529;29;20518;-59
2022/11/30 10:47:39;;;;;;;10.90;7.40;;;;;;;;;;4879808;29;20049;-59
2022/11/30 10:50:06;;;;;;;12.65;8.35;;;;;;;;;;4879687;29;20041;-59
2022/11/30 10:52:59;;;;;;;13.02;8.05;;;;;;;;;;4879654;29;20120;-58
2022/11/30 10:55:28;;;;;;;15.35;8.02;;;;;;;;;;4874861;29;20064;-60
2022/11/30 10:57:58;;;;;;;12.57;7.68;;;;;;;;;;4880859;29;20064;-60
2022/11/30 11:00:24;;;;;;;12.95;7.78;;;;;;;;;;4879521;29;20045;-60
2022/11/30 11:02:51;;;;;;;9.75;7.00;;;;;;;;;;4879180;29;20466;-59
2022/11/30 11:05:20;;;;;;;11.27;7.03;;;;;;;;;;4881124;29;20057;-58
2022/11/30 11:07:57;;;;;;;9.77;6.50;;;;;;;;;;4881174;29;20092;-60
2022/11/30 11:10:33;;;;;;;11.00;6.82;;;;;;;;;;4886846;29;20621;-60
2022/11/30 11:12:59;;;;;;;9.68;6.90;;;;;;;;;;4887570;29;20049;-60
2022/11/30 11:15:26;;;;;;;11.52;7.45;;;;;;;;;;4886577;29;20052;-60
2022/11/30 11:17:53;;;;;;;10.27;7.05;;;;;;;;;;4883811;29;20104;-61
2022/11/30 11:20:27;;;;;;;11.00;7.05;;;;;;;;;;4885665;29;20049;-59
2022/11/30 11:22:53;;;;;;;;;;;;;;;;;;4882799;29;20053;-60
2022/11/30 11:25:21;;;;;;;11.57;7.45;;;;;;;;;;4882351;29;19924;-60
2022/11/30 11:27:57;;;;;;;12.25;7.65;;;;;;;;;;4884801;29;20052;-60
2022/11/30 11:30:24;;;;;;;12.93;8.75;;;;;;;;;;4883493;29;20064;-60
2022/11/30 11:33:14;;;;;;;13.95;8.48;;;;;;;;;;4883748;29;20052;-60
2022/11/30 11:35:41;;;;;;;12.38;7.95;;;;;;;;;;4883091;29;20041;-61
2022/11/30 11:38:26;;;;;;;13.40;8.15;;;;;;;;;;4883741;29;20045;-62
2022/11/30 11:40:57;;;;;;;12.30;8.27;;;;;;;;;;4884746;29;20059;-59
2022/11/30 11:43:24;;;;;;;15.80;10.27;;;;;;;;;;4883527;29;20041;-61
2022/11/30 11:45:52;;;;;;;16.95;10.38;;;;;;;;;;4883501;29;20057;-59
2022/11/30 11:48:25;;;;;;;17.83;10.68;;;;;;;;;;4883721;29;20128;-60
2022/11/30 11:51:05;;;;;;;14.02;10.30;;;;;;;;;;4882573;29;20049;-60
2022/11/30 11:53:45;;;;;;;17.73;10.57;;;;;;;;;;4881581;29;20049;-59
2022/11/30 11:56:26;;;;;;;17.50;11.57;;;;;;;;;;4879872;29;20486;-60
2022/11/30 11:58:58;;;;;;;15.43;10.50;;;;;;;;;;4881180;29;20053;-59
2022/11/30 12:01:30;;;;;;;16.88;11.00;;;;;;;;;;4882904;29;20057;-60
2022/11/30 12:04:11;;;;;;;17.75;11.13;;;;;;;;;;4880537;29;20092;-60
2022/11/30 12:06:41;;;;;;;17.95;11.77;;;;;;;;;;4879995;29;20056;-60
2022/11/30 12:09:13;;;;;;;18.83;12.32;;;;;;;;;;4881762;29;20041;-59
2022/11/30 12:11:41;;;;;;;18.02;12.07;;;;;;;;;;4879614;29;20049;-60
2022/11/30 12:14:10;;;;;;;19.63;12.40;;;;;;;;;;4879885;29;20076;-59
2022/11/30 12:16:46;;;;;;;21.05;13.25;;;;;;;;;;4880559;29;20045;-61
2022/11/30 12:19:20;;;;;;;22.15;13.38;;;;;;;;;;4881667;29;20052;-59
2022/11/30 12:22:05;;;;;;;18.10;12.52;;;;;;;;;;4879845;29;20057;-60
2022/11/30 12:24:51;;;;;;;18.95;11.27;;;;;;;;;;4880365;29;20052;-60
2022/11/30 12:27:20;;;;;;;20.58;13.07;;;;;;;;;;4879763;29;20044;-59
2022/11/30 12:29:54;;;;;;;18.23;12.38;;;;;;;;;;4879709;29;20048;-59
2022/11/30 12:32:33;;;;;;;18.42;12.68;;;;;;;;;;4878563;29;20056;-59
2022/11/30 12:35:11;;;;;;;19.23;12.48;;;;;;;;;;4878096;29;20057;-62
2022/11/30 12:37:53;;;;;;;20.50;11.98;;;;;;;;;;4878159;29;20476;-61
2022/11/30 12:40:19;;;;;;;20.80;12.50;;;;;;;;;;4879486;29;20049;-61
2022/11/30 12:42:51;;;;;;;18.23;11.70;;;;;;;;;;4878951;29;20052;-61
2022/11/30 12:45:20;;;;;;;15.05;11.15;;;;;;;;;;4878586;29;20074;-60
2022/11/30 12:48:06;;;;;;;15.63;11.43;;;;;;;;;;4879149;29;20041;-61
2022/11/30 12:50:50;;;;;;;16.45;11.38;;;;;;;;;;4878799;29;20105;-62
2022/11/30 12:53:29;;;;;;;19.25;11.80;;;;;;;;;;4879023;29;20045;-60
2022/11/30 12:55:58;;;;;;;21.08;12.02;;;;;;;;;;4878240;29;20052;-61
2022/11/30 12:58:31;;;;;;;17.83;11.35;;;;;;;;;;4878679;29;20072;-60
2022/11/30 13:01:00;;;;;;;18.80;11.63;;;;;;;;;;4878530;29;20045;-60
2022/11/30 13:03:42;;;;;;;13.82;10.05;;;;;;;;;;4877410;29;20049;-61
2022/11/30 13:06:14;;;;;;;14.85;10.25;;;;;;;;;;4877860;29;20045;-60
2022/11/30 13:08:49;;;;;;;15.52;9.57;;;;;;;;;;4877232;29;20045;-60
2022/11/30 13:11:18;;;;;;;13.48;10.10;;;;;;;;;;4878714;29;20406;-60
2022/11/30 13:13:48;;;;;;;14.55;10.20;;;;;;;;;;4878485;29;20498;-59
2022/11/30 13:16:15;;;;;;;16.45;10.88;;;;;;;;;;4878093;29;20037;-60
2022/11/30 13:18:42;;;;;;;16.20;10.50;;;;;;;;;;4877107;29;20101;-60
2022/11/30 13:21:29;;;;;;;14.25;10.05;;;;;;;;;;4877294;29;20049;-60
2022/11/30 13:24:08;;;;;;;14.75;9.00;;;;;;;;;;4892516;29;20064;-60
2022/11/30 13:26:41;;;;;;;13.02;9.32;;;;;;;;;;4877880;29;20387;-61
2022/11/30 13:29:13;;;;;;;13.93;9.75;;;;;;;;;;4876917;29;20566;-60
2022/11/30 13:31:43;;;;;;;12.75;9.13;;;;;;;;;;4878731;29;20421;-60
2022/11/30 13:34:23;;;;;;;11.13;8.20;;;;;;;;;;4878404;29;20048;-59
2022/11/30 13:36:50;;;;;;;13.68;9.73;;;;;;;;;;4877789;29;20477;-60
2022/11/30 13:39:22;;;;;;;12.55;8.57;;;;;;;;;;4878118;29;20510;-60
2022/11/30 13:42:01;;;;;;;13.40;9.45;;;;;;;;;;4877154;29;20045;-61
2022/11/30 13:44:32;;;;;;;11.35;7.95;;;;;;;;;;4878254;29;20052;-59
2022/11/30 13:46:59;;;;;;;12.80;8.80;;;;;;;;;;4877696;29;20261;-60
2022/11/30 13:49:35;;;;;;;14.00;8.45;;;;;;;;;;4878180;29;20073;-61
2022/11/30 13:52:03;;;;;;;14.07;8.50;;;;;;;;;;4878161;29;20053;-60
2022/11/30 13:54:53;;;;;;;14.23;8.57;;;;;;;;;;4878047;29;20513;-61
2022/11/30 13:57:23;;;;;;;12.90;9.13;;;;;;;;;;4877771;29;20078;-60
2022/11/30 13:59:50;;;;;;;13.57;9.43;;;;;;;;;;4876881;29;20077;-60
2022/11/30 14:02:32;;;;;;;16.00;10.13;;;;;;;;;;4878087;29;20509;-60
2022/11/30 14:05:17;;;;;;;15.70;11.32;;;;;;;;;;4877748;29;20049;-60
2022/11/30 14:07:49;;;;;;;16.58;11.43;;;;;;;;;;4877958;29;20516;-60
2022/11/30 14:10:34;;;;;;;16.30;11.68;;;;;;;;;;4877765;29;20418;-60
2022/11/30 14:13:01;;;;;;;16.98;11.60;;;;;;;;;;4876644;29;20573;-62
2022/11/30 14:15:36;;;;;;;20.08;12.57;;;;;;;;;;4877310;29;20049;-60
2022/11/30 14:18:06;;;;;;;20.33;12.15;;;;;;;;;;4879879;29;20384;-62
2022/11/30 14:20:34;;;;;;;18.52;12.43;;;;;;;;;;4879908;29;20045;-62
2022/11/30 14:23:05;;;;;;;20.77;12.80;;;;;;;;;;4865047;29;20105;-63
2022/11/30 14:25:33;;;;;;;19.35;12.73;;;;;;;;;;4879635;29;20068;-63
2022/11/30 14:28:01;;;;;;;26.88;18.95;;;;;;;;;;4881499;29;20052;-63
2022/11/30 14:30:30;;;;;;;24.95;16.58;;;;;;;;;;4881192;29;20074;-62
2022/11/30 14:33:00;;;;;;;20.48;14.38;;;;;;;;;;4881236;29;20078;-62
2022/11/30 14:35:28;;;;;;;24.70;13.82;;;;;;;;;;4880595;29;20049;-61
2022/11/30 14:37:55;;;;;;;25.98;15.27;;;;;;;;;;4881141;29;20041;-62